Time;durP1;ratioP1;P1;durP2;ratioP2;P2;SDS_P1;SDS_P2;PMS_P1;PMS_P2;Temp;Humidity;BMP_temperature;BMP_pressure;BME280_temperature;BME280_humidity;BME280_pressure;Samples;Min_cycle;Max_cycle;Signal;HPM_P1;HPM_P2
2020/12/22 00:01:13;;;;;;;2.53;1.80;;;;;;;9.01;96.35;96816.59;5013196;28;20409;-69
2020/12/22 00:03:41;;;;;;;1.83;1.73;;;;;;;8.89;97.11;96800.81;5013673;28;20222;-69
2020/12/22 00:06:20;;;;;;;1.93;1.83;;;;;;;8.98;96.44;96801.31;5012785;28;20524;-69
2020/12/22 00:08:46;;;;;;;1.70;1.60;;;;;;;9.01;97.02;96813.97;4998117;28;20600;-70
2020/12/22 00:11:11;;;;;;;1.80;1.70;;;;;;;9.03;96.96;96804.88;5012903;28;20205;-69
2020/12/22 00:13:36;;;;;;;1.90;1.70;;;;;;;9.01;97.07;96830.47;5013775;28;20735;-69
2020/12/22 00:16:02;;;;;;;1.80;1.70;;;;;;;8.95;97.62;96835.75;5013065;28;20180;-69
2020/12/22 00:18:27;;;;;;;2.20;2.00;;;;;;;8.98;97.63;96837.91;5013352;28;20217;-69
2020/12/22 00:20:53;;;;;;;2.00;1.90;;;;;;;8.97;97.76;96829.28;5012735;28;20184;-73
2020/12/22 00:23:18;;;;;;;1.80;1.70;;;;;;;9.05;97.38;96826.41;5012920;28;20594;-69
2020/12/22 00:25:45;;;;;;;2.00;1.90;;;;;;;8.97;98.05;96812.81;5013130;28;20581;-69
2020/12/22 00:28:12;;;;;;;2.17;1.83;;;;;;;9.03;97.88;96801.47;5012285;28;20188;-69
2020/12/22 00:30:38;;;;;;;1.80;1.70;;;;;;;9.09;97.22;96798.00;5012784;28;20220;-69
2020/12/22 00:33:04;;;;;;;1.93;1.83;;;;;;;9.06;97.89;96803.66;5012660;28;20609;-70
2020/12/22 00:35:30;;;;;;;2.00;1.90;;;;;;;9.02;97.68;96799.91;5012943;28;20186;-70
2020/12/22 00:37:56;;;;;;;1.90;1.80;;;;;;;9.07;97.62;96802.66;5012558;28;20195;-70
2020/12/22 00:40:21;;;;;;;1.77;1.60;;;;;;;9.00;98.39;96794.88;5013010;28;20225;-69
2020/12/22 00:42:47;;;;;;;1.70;1.60;;;;;;;9.03;98.57;96797.03;5012841;28;20227;-69
2020/12/22 00:45:12;;;;;;;1.60;1.50;;;;;;;9.00;98.49;96799.31;5008374;28;20180;-70
2020/12/22 00:47:38;;;;;;;2.00;1.80;;;;;;;9.02;98.50;96787.63;5001308;28;20179;-69
2020/12/22 00:50:03;;;;;;;1.70;1.60;;;;;;;9.08;98.28;96793.81;5011873;28;20186;-72
2020/12/22 00:52:29;;;;;;;1.40;1.30;;;;;;;9.15;97.86;96797.13;5013369;28;20229;-72
2020/12/22 00:54:54;;;;;;;1.40;1.30;;;;;;;9.11;99.09;96795.97;5011707;28;20316;-73
2020/12/22 00:57:20;;;;;;;1.30;1.30;;;;;;;9.22;98.70;96804.91;5012065;28;20278;-72
2020/12/22 00:59:45;;;;;;;1.60;1.50;;;;;;;9.27;98.33;96805.84;5017082;28;20187;-72
2020/12/22 01:02:11;;;;;;;1.13;1.13;;;;;;;9.26;98.09;96814.72;5012028;28;20175;-72
2020/12/22 01:04:36;;;;;;;1.40;1.30;;;;;;;9.27;98.29;96813.72;5012478;28;20188;-72
2020/12/22 01:07:02;;;;;;;1.27;1.17;;;;;;;9.41;97.75;96827.47;5011927;28;20274;-70
2020/12/22 01:09:27;;;;;;;1.27;1.17;;;;;;;9.33;98.66;96828.53;5023461;28;20183;-70
2020/12/22 01:11:53;;;;;;;1.33;1.10;;;;;;;9.39;98.50;96832.91;5012244;28;20210;-75
2020/12/22 01:14:18;;;;;;;1.27;1.17;;;;;;;9.39;97.97;96832.09;5012129;28;20214;-70
2020/12/22 01:16:44;;;;;;;1.03;1.03;;;;;;;9.48;98.37;96834.19;5012277;28;20218;-71
2020/12/22 01:19:09;;;;;;;1.00;1.00;;;;;;;9.46;98.02;96836.25;5011618;28;20237;-70
2020/12/22 01:21:35;;;;;;;2.13;1.23;;;;;;;9.48;97.99;96828.97;5012520;28;20277;-70
2020/12/22 01:24:01;;;;;;;1.37;1.13;;;;;;;9.60;97.70;96834.28;5011570;28;20199;-71
2020/12/22 01:26:26;;;;;;;0.90;0.90;;;;;;;9.72;96.51;96839.56;5011599;28;20187;-71
2020/12/22 01:28:53;;;;;;;0.93;0.93;;;;;;;9.67;97.15;96829.78;5011616;28;20187;-73
2020/12/22 01:31:30;;;;;;;0.70;0.70;;;;;;;9.68;96.91;96834.00;5010664;28;20207;-71
2020/12/22 01:33:58;;;;;;;0.80;0.80;;;;;;;9.79;96.65;96827.22;5002993;28;20298;-71
2020/12/22 01:36:25;;;;;;;0.80;0.80;;;;;;;9.85;95.95;96832.38;5017977;28;20190;-71
2020/12/22 01:38:51;;;;;;;0.77;0.77;;;;;;;9.77;96.25;96829.25;4997024;28;20197;-73
2020/12/22 01:41:17;;;;;;;1.10;0.93;;;;;;;9.80;96.41;96832.25;5011375;28;20187;-71
2020/12/22 01:43:43;;;;;;;0.83;0.83;;;;;;;9.79;96.21;96827.22;5012132;28;20262;-71
2020/12/22 01:46:09;;;;;;;1.90;0.90;;;;;;;9.79;96.26;96848.16;5011086;28;20175;-71
2020/12/22 01:48:36;;;;;;;0.80;0.80;;;;;;;9.78;96.83;96829.03;5011628;28;20191;-71
2020/12/22 01:51:03;;;;;;;1.00;0.77;;;;;;;9.83;96.44;96826.56;5011283;28;20710;-71
2020/12/22 01:53:29;;;;;;;1.67;0.67;;;;;;;9.78;96.74;96826.41;5011684;28;20207;-71
2020/12/22 01:55:54;;;;;;;0.60;0.60;;;;;;;9.80;96.67;96823.59;5010351;28;20234;-74
2020/12/22 01:58:20;;;;;;;0.73;0.73;;;;;;;9.84;96.24;96824.72;5011735;28;20667;-71
2020/12/22 02:00:46;;;;;;;1.90;0.70;;;;;;;9.69;96.95;96840.81;4994804;28;20222;-71
2020/12/22 02:03:13;;;;;;;0.60;0.60;;;;;;;9.78;96.70;96831.66;5010884;28;20186;-72
2020/12/22 02:05:39;;;;;;;0.90;0.90;;;;;;;9.84;96.42;96835.22;5008790;28;20250;-72
2020/12/22 02:08:05;;;;;;;0.50;0.50;;;;;;;9.87;96.36;96837.38;5013470;28;20195;-72
2020/12/22 02:10:31;;;;;;;0.50;0.50;;;;;;;9.92;96.27;96837.50;5014053;28;20223;-72
2020/12/22 02:12:58;;;;;;;0.50;0.50;;;;;;;9.97;95.64;96835.06;5011150;28;20660;-70
2020/12/22 02:15:23;;;;;;;0.50;0.50;;;;;;;10.01;95.49;96837.00;5021240;28;20302;-69
2020/12/22 02:17:49;;;;;;;0.63;0.63;;;;;;;9.99;95.59;96844.25;5011407;28;20183;-69
2020/12/22 02:20:14;;;;;;;0.60;0.57;;;;;;;9.97;95.66;96827.97;5011018;28;20206;-70
2020/12/22 02:22:40;;;;;;;1.30;0.63;;;;;;;10.01;95.86;96828.34;5011165;28;20967;-71
2020/12/22 02:25:14;;;;;;;0.60;0.60;;;;;;;10.03;95.24;96827.09;5010305;28;20620;-71
2020/12/22 02:27:40;;;;;;;0.53;0.53;;;;;;;10.07;95.27;96829.28;5011035;28;20318;-70
2020/12/22 02:30:06;;;;;;;0.40;0.40;;;;;;;10.09;95.32;96827.22;5010985;28;20727;-71
2020/12/22 02:32:32;;;;;;;0.40;0.40;;;;;;;10.13;95.06;96831.00;5011141;28;20276;-70
2020/12/22 02:34:57;;;;;;;0.50;0.50;;;;;;;10.10;95.18;96824.38;5009579;28;20206;-71
2020/12/22 02:37:22;;;;;;;0.50;0.50;;;;;;;10.18;95.10;96802.34;5011968;28;20690;-71
2020/12/22 02:39:49;;;;;;;0.50;0.50;;;;;;;10.13;94.93;96803.00;5011718;28;20202;-70
2020/12/22 02:42:15;;;;;;;1.23;0.60;;;;;;;10.20;94.69;96793.25;5008997;28;20219;-72
2020/12/22 02:44:40;;;;;;;0.40;0.40;;;;;;;10.28;94.24;96813.88;5012563;28;20195;-70
2020/12/22 02:47:11;;;;;;;1.37;0.60;;;;;;;10.26;94.76;96810.69;5017331;28;20286;-71
2020/12/22 02:49:37;;;;;;;0.40;0.40;;;;;;;10.27;94.18;96811.47;5015146;28;20655;-70
2020/12/22 02:52:02;;;;;;;0.63;0.50;;;;;;;10.20;94.85;96797.69;5014188;28;20218;-70
2020/12/22 02:54:28;;;;;;;0.60;0.60;;;;;;;10.29;94.42;96798.97;5015116;28;20211;-70
2020/12/22 02:56:53;;;;;;;1.07;0.40;;;;;;;10.27;94.79;96793.16;5014095;28;20773;-74
2020/12/22 02:59:18;;;;;;;1.53;0.67;;;;;;;10.31;94.69;96783.81;5013477;28;20179;-70
2020/12/22 03:01:44;;;;;;;4.70;0.60;;;;;;;10.14;95.49;96793.31;5015096;28;20195;-70
2020/12/22 03:04:10;;;;;;;1.07;0.53;;;;;;;10.19;94.96;96783.81;5014060;28;20241;-70
2020/12/22 03:06:35;;;;;;;0.40;0.40;;;;;;;10.19;95.37;96781.19;5014345;28;20179;-70
2020/12/22 03:09:01;;;;;;;0.83;0.50;;;;;;;10.16;95.39;96784.25;5023432;28;20662;-69
2020/12/22 03:11:26;;;;;;;0.40;0.40;;;;;;;10.29;95.32;96793.72;5014800;28;20245;-68
2020/12/22 03:13:52;;;;;;;0.43;0.43;;;;;;;10.19;95.37;96783.81;5014458;28;20202;-75
2020/12/22 03:16:18;;;;;;;0.50;0.50;;;;;;;10.16;96.01;96786.03;5014634;28;20726;-69
2020/12/22 03:18:43;;;;;;;1.60;0.50;;;;;;;10.32;95.10;96795.91;5015168;28;20178;-68
2020/12/22 03:21:09;;;;;;;0.40;0.40;;;;;;;10.31;95.45;96794.28;5013745;28;20194;-69
2020/12/22 03:23:34;;;;;;;0.50;0.50;;;;;;;10.24;95.97;96798.84;5014618;28;20662;-68
2020/12/22 03:26:00;;;;;;;0.60;0.60;;;;;;;10.30;95.88;96792.72;5013467;28;20542;-69
2020/12/22 03:28:25;;;;;;;0.50;0.50;;;;;;;10.42;95.23;96796.16;5014188;28;20199;-72
2020/12/22 03:30:50;;;;;;;0.87;0.40;;;;;;;10.44;94.66;96791.47;5014346;28;20191;-68
2020/12/22 03:33:16;;;;;;;0.40;0.40;;;;;;;10.40;94.45;96780.66;5014071;28;20211;-68
2020/12/22 03:35:41;;;;;;;0.30;0.30;;;;;;;10.40;94.72;96775.44;5013787;28;20188;-68
2020/12/22 03:38:07;;;;;;;3.73;0.50;;;;;;;10.35;95.12;96771.88;5013800;28;20184;-69
2020/12/22 03:40:32;;;;;;;3.50;0.43;;;;;;;10.42;94.64;96773.34;5014438;28;20206;-68
2020/12/22 03:42:57;;;;;;;0.30;0.30;;;;;;;10.37;94.72;96769.81;5013169;28;20310;-69
2020/12/22 03:45:23;;;;;;;0.50;0.50;;;;;;;10.34;95.06;96762.41;5013980;28;20229;-69
2020/12/22 03:47:49;;;;;;;0.57;0.57;;;;;;;10.36;94.91;96773.47;5013609;28;20187;-68
2020/12/22 03:50:14;;;;;;;1.20;0.40;;;;;;;10.35;94.96;96771.88;5013197;28;20193;-69
2020/12/22 03:52:40;;;;;;;0.40;0.40;;;;;;;10.38;94.65;96787.94;5014448;28;20551;-69
2020/12/22 03:55:05;;;;;;;0.40;0.40;;;;;;;10.39;94.62;96792.16;5012676;28;20258;-69
2020/12/22 03:57:31;;;;;;;0.40;0.40;;;;;;;10.36;95.16;96802.31;5012766;28;20699;-70
2020/12/22 03:59:56;;;;;;;1.20;0.40;;;;;;;10.37;95.11;96802.06;5012460;28;20182;-72
2020/12/22 04:02:21;;;;;;;0.30;0.30;;;;;;;10.39;94.71;96807.09;5013958;28;20701;-69
2020/12/22 04:04:47;;;;;;;0.50;0.50;;;;;;;10.35;95.24;96806.75;5014051;28;20306;-69
2020/12/22 04:07:12;;;;;;;0.40;0.40;;;;;;;10.28;95.63;96803.41;5016328;28;20195;-69
2020/12/22 04:09:38;;;;;;;0.67;0.43;;;;;;;10.30;96.05;96795.34;5015057;28;20266;-68
2020/12/22 04:12:03;;;;;;;0.50;0.50;;;;;;;10.30;95.62;96782.25;5012948;28;20640;-70
2020/12/22 04:14:28;;;;;;;0.40;0.40;;;;;;;10.27;96.39;96796.56;5013391;28;20192;-69
2020/12/22 04:16:54;;;;;;;0.50;0.50;;;;;;;10.18;96.79;96804.97;5013566;28;20539;-74
2020/12/22 04:19:19;;;;;;;0.50;0.50;;;;;;;10.24;96.48;96794.41;5013256;28;20179;-69
2020/12/22 04:21:47;;;;;;;0.50;0.50;;;;;;;10.29;96.27;96796.34;5013031;28;20195;-69
2020/12/22 04:24:12;;;;;;;0.40;0.40;;;;;;;10.31;96.11;96802.94;5012660;28;20541;-69
2020/12/22 04:26:38;;;;;;;0.40;0.40;;;;;;;10.35;96.19;96806.75;5021598;28;20195;-69
2020/12/22 04:29:03;;;;;;;0.40;0.40;;;;;;;10.32;96.59;96807.19;4995317;28;20225;-69
2020/12/22 04:31:29;;;;;;;0.40;0.40;;;;;;;10.39;96.39;96807.09;5013282;28;20639;-71
2020/12/22 04:33:56;;;;;;;0.30;0.30;;;;;;;10.38;96.10;96795.00;5012871;28;20732;-74
2020/12/22 04:36:22;;;;;;;0.40;0.40;;;;;;;10.41;96.10;96798.00;5012795;28;20234;-69
2020/12/22 04:38:48;;;;;;;0.43;0.43;;;;;;;10.40;96.25;96793.75;5013083;28;20266;-70
2020/12/22 04:41:16;;;;;;;0.43;0.43;;;;;;;10.43;96.25;96800.34;5000107;28;20188;-69
2020/12/22 04:43:42;;;;;;;1.13;0.30;;;;;;;10.42;96.26;96799.56;5009787;28;20238;-68
2020/12/22 04:46:09;;;;;;;0.30;0.30;;;;;;;10.39;96.51;96800.03;5012366;28;20179;-68
2020/12/22 04:48:39;;;;;;;0.53;0.30;;;;;;;10.42;96.41;96798.78;5013481;28;20191;-68
2020/12/22 04:51:11;;;;;;;0.40;0.40;;;;;;;10.43;96.60;96803.78;5011061;28;20186;-69
2020/12/22 04:53:38;;;;;;;0.40;0.40;;;;;;;10.45;96.61;96803.56;5012454;28;20230;-69
2020/12/22 04:56:08;;;;;;;0.30;0.30;;;;;;;10.53;96.20;96802.44;5025982;28;20183;-69
2020/12/22 04:58:34;;;;;;;0.40;0.40;;;;;;;10.47;96.74;96796.28;5012467;28;20182;-69
2020/12/22 05:01:00;;;;;;;0.40;0.40;;;;;;;10.46;96.80;96801.75;5011899;28;20191;-69
2020/12/22 05:03:25;;;;;;;0.40;0.40;;;;;;;10.49;96.80;96782.94;5024336;28;20709;-68
2020/12/22 05:05:52;;;;;;;0.30;0.30;;;;;;;10.47;96.86;96780.56;5012271;28;20236;-68
2020/12/22 05:08:18;;;;;;;0.33;0.33;;;;;;;10.47;97.07;96795.50;5011658;28;20191;-68
2020/12/22 05:10:45;;;;;;;0.30;0.30;;;;;;;10.51;97.04;96786.16;5012713;28;20191;-69
2020/12/22 05:13:12;;;;;;;0.40;0.40;;;;;;;10.55;96.95;96789.91;5011720;28;20591;-69
2020/12/22 05:15:47;;;;;;;0.40;0.40;;;;;;;10.51;97.11;96788.75;5012085;28;20276;-68
2020/12/22 05:18:12;;;;;;;0.47;0.47;;;;;;;10.57;96.36;96796.53;5024011;28;20190;-68
2020/12/22 05:20:43;;;;;;;0.30;0.30;;;;;;;10.55;96.87;96803.81;5012812;28;20186;-68
2020/12/22 05:23:12;;;;;;;0.37;0.30;;;;;;;10.58;97.04;96811.22;5011439;28;20248;-68
2020/12/22 05:25:38;;;;;;;0.40;0.40;;;;;;;10.51;97.25;96812.34;5012353;28;20226;-68
2020/12/22 05:28:06;;;;;;;0.30;0.30;;;;;;;10.52;97.11;96812.13;5010646;28;20207;-68
2020/12/22 05:30:32;;;;;;;1.40;0.30;;;;;;;10.58;96.94;96816.47;5010781;28;20180;-68
2020/12/22 05:32:57;;;;;;;0.67;0.43;;;;;;;10.61;96.38;96809.97;5011993;28;20206;-73
2020/12/22 05:35:22;;;;;;;0.40;0.40;;;;;;;10.65;96.68;96814.53;5006260;28;20175;-69
2020/12/22 05:37:51;;;;;;;0.63;0.33;;;;;;;10.69;96.15;96802.59;5011906;28;20613;-69
2020/12/22 05:40:18;;;;;;;0.30;0.30;;;;;;;10.63;96.12;96800.88;5011814;28;20216;-68
2020/12/22 05:42:46;;;;;;;0.40;0.40;;;;;;;10.65;95.95;96809.28;5010336;28;20314;-68
2020/12/22 05:45:11;;;;;;;0.50;0.50;;;;;;;10.67;95.91;96791.53;5011112;28;20176;-68
2020/12/22 05:47:36;;;;;;;0.30;0.30;;;;;;;10.69;95.72;96792.09;5012227;28;20195;-68
2020/12/22 05:50:04;;;;;;;0.43;0.43;;;;;;;10.68;95.77;96792.31;5000141;28;20644;-70
2020/12/22 05:52:30;;;;;;;0.87;0.67;;;;;;;10.67;96.17;96798.59;5011656;28;20191;-70
2020/12/22 05:54:58;;;;;;;0.40;0.40;;;;;;;10.68;95.72;96806.22;5011611;28;20600;-73
2020/12/22 05:57:28;;;;;;;0.40;0.40;;;;;;;10.72;95.92;96807.38;5021019;28;20666;-67
2020/12/22 05:59:55;;;;;;;0.40;0.40;;;;;;;10.71;95.78;96803.13;5011494;28;20187;-69
2020/12/22 06:02:30;;;;;;;0.40;0.40;;;;;;;10.71;95.83;96816.25;5010794;28;20675;-71
2020/12/22 06:05:01;;;;;;;0.73;0.37;;;;;;;10.74;95.89;96812.38;4978180;28;20203;-72
2020/12/22 06:07:27;;;;;;;0.87;0.30;;;;;;;10.78;95.38;96808.28;5017384;28;20199;-69
2020/12/22 06:09:53;;;;;;;0.40;0.40;;;;;;;10.78;95.72;96814.31;5011706;28;20191;-69
2020/12/22 06:12:23;;;;;;;0.50;0.50;;;;;;;10.76;95.71;96816.38;5010734;28;20221;-69
2020/12/22 06:14:51;;;;;;;0.87;0.50;;;;;;;10.81;95.28;96821.72;5011531;28;20516;-69
2020/12/22 06:17:17;;;;;;;0.43;0.43;;;;;;;10.84;95.72;96815.25;5002473;28;20206;-69
2020/12/22 06:19:44;;;;;;;0.40;0.40;;;;;;;10.83;95.43;96814.44;5008623;28;20187;-69
2020/12/22 06:22:12;;;;;;;0.50;0.50;;;;;;;11.21;95.91;96826.28;5005366;28;20172;-72
2020/12/22 06:24:39;;;;;;;0.50;0.50;;;;;;;11.63;92.54;96829.56;5010364;28;20569;-71
2020/12/22 06:27:07;;;;;;;0.47;0.47;;;;;;;11.90;90.62;96830.66;5014037;28;20253;-69
2020/12/22 06:29:34;;;;;;;0.77;0.70;;;;;;;11.71;90.11;96825.75;5018305;28;20182;-71
2020/12/22 06:32:17;;;;;;;0.47;0.47;;;;;;;11.51;90.95;96828.78;5017378;28;20179;-76
2020/12/22 06:34:46;;;;;;;0.40;0.40;;;;;;;11.29;92.47;96817.28;5017555;28;20677;-73
2020/12/22 06:37:12;;;;;;;1.10;0.40;;;;;;;11.21;92.95;96821.03;5016420;28;20210;-72
2020/12/22 06:39:51;;;;;;;0.47;0.47;;;;;;;11.25;92.94;96827.44;5018105;28;20273;-72
2020/12/22 06:42:39;;;;;;;0.57;0.40;;;;;;;11.16;93.94;96821.75;5022562;28;20179;-71
2020/12/22 06:45:29;;;;;;;0.40;0.40;;;;;;;11.15;93.74;96812.28;5001193;28;20206;-71
2020/12/22 06:47:59;;;;;;;0.40;0.40;;;;;;;11.13;94.12;96824.03;5017882;28;20741;-75
2020/12/22 06:50:44;;;;;;;0.40;0.40;;;;;;;11.17;93.37;96828.59;5021583;28;20705;-71
2020/12/22 06:53:35;;;;;;;1.40;0.50;;;;;;;11.17;93.50;96831.22;5017124;28;20558;-72
2020/12/22 06:56:05;;;;;;;0.43;0.43;;;;;;;11.20;93.21;96822.88;5001959;28;20577;-74
2020/12/22 06:58:41;;;;;;;0.40;0.40;;;;;;;11.19;93.11;96823.91;5010197;28;20660;-71
2020/12/22 07:01:25;;;;;;;0.40;0.40;;;;;;;11.17;93.34;96827.78;5015707;28;20187;-71
2020/12/22 07:04:10;;;;;;;0.50;0.50;;;;;;;11.20;93.13;96824.72;5017132;28;20973;-72
2020/12/22 07:06:47;;;;;;;0.53;0.40;;;;;;;11.24;92.83;96828.47;5028378;28;20194;-78
2020/12/22 07:09:21;;;;;;;0.50;0.43;;;;;;;11.18;93.01;96832.81;5016857;28;20218;-77
2020/12/22 07:11:48;;;;;;;0.40;0.40;;;;;;;11.23;92.75;96838.16;5017609;28;20187;-74
2020/12/22 07:14:14;;;;;;;0.50;0.50;;;;;;;11.27;92.24;96828.00;5016829;28;20289;-76
2020/12/22 07:16:59;;;;;;;0.40;0.40;;;;;;;11.27;92.63;96828.81;5011972;28;20274;-76
2020/12/22 07:19:45;;;;;;;0.40;0.40;;;;;;;11.34;92.10;96820.81;5009250;28;20179;-75
2020/12/22 07:22:10;;;;;;;0.90;0.90;;;;;;;11.31;91.79;96839.66;5017091;28;20182;-71
2020/12/22 07:24:37;;;;;;;0.70;0.70;;;;;;;11.36;91.50;96844.22;5016913;28;20599;-69
2020/12/22 07:27:04;;;;;;;0.93;0.60;;;;;;;11.39;91.43;96855.03;5015769;28;20209;-74
2020/12/22 07:29:29;;;;;;;0.70;0.67;;;;;;;11.47;90.72;96849.44;5016085;28;20582;-74
2020/12/22 07:31:55;;;;;;;0.57;0.57;;;;;;;11.53;89.90;96856.41;5005619;28;20180;-73
2020/12/22 07:34:21;;;;;;;0.50;0.50;;;;;;;11.54;90.30;96857.19;5012255;28;20831;-73
2020/12/22 07:36:47;;;;;;;0.70;0.70;;;;;;;11.58;89.66;96855.72;5010583;28;20242;-74
2020/12/22 07:39:22;;;;;;;0.70;0.70;;;;;;;11.64;89.36;96857.41;5017572;28;20188;-75
2020/12/22 07:41:50;;;;;;;0.73;0.73;;;;;;;11.65;89.05;96872.13;5013990;28;20183;-73
2020/12/22 07:44:17;;;;;;;0.70;0.70;;;;;;;11.65;88.95;96854.53;5008626;28;20238;-73
2020/12/22 07:46:45;;;;;;;1.30;1.20;;;;;;;11.70;88.74;96864.38;5028184;28;20242;-70
2020/12/22 07:49:12;;;;;;;0.60;0.60;;;;;;;11.70;88.53;96872.25;5013709;28;20573;-73
2020/12/22 07:51:46;;;;;;;0.60;0.60;;;;;;;11.77;88.36;96870.31;5013913;28;20249;-73
2020/12/22 07:54:12;;;;;;;0.93;0.87;;;;;;;11.69;88.36;96875.91;5012694;28;20191;-70
2020/12/22 07:56:39;;;;;;;0.70;0.70;;;;;;;11.77;87.92;96861.63;5014098;28;20195;-70
2020/12/22 07:59:09;;;;;;;0.50;0.50;;;;;;;11.91;87.46;96876.91;5010492;28;20187;-71
2020/12/22 08:01:39;;;;;;;0.60;0.60;;;;;;;11.90;87.27;96875.31;5007983;28;20211;-72
2020/12/22 08:04:19;;;;;;;2.53;0.90;;;;;;;11.83;87.81;96879.88;5011430;28;20325;-74
2020/12/22 08:06:59;;;;;;;1.27;0.80;;;;;;;11.82;88.08;96877.47;5025988;28;20202;-69
2020/12/22 09:12:08;;;;;;;0.67;0.60;;;;;;;11.85;90.31;96935.63;5163654;27;20741;-75
2020/12/22 09:14:41;;;;;;;0.50;0.50;;;;;;;11.96;89.85;96934.00;5148686;27;20208;-75
2020/12/22 09:17:07;;;;;;;0.60;0.60;;;;;;;11.96;89.60;96936.63;5130419;27;20638;-74
2020/12/22 09:19:47;;;;;;;0.50;0.50;;;;;;;12.03;89.74;96937.31;5150190;27;20212;-73
2020/12/22 09:22:15;;;;;;;0.53;0.53;;;;;;;12.05;89.66;96938.66;5149536;27;20266;-73
2020/12/22 09:24:41;;;;;;;0.80;0.80;;;;;;;12.12;89.79;96942.97;5149718;27;20190;-73
2020/12/22 09:27:11;;;;;;;0.40;0.40;;;;;;;12.12;90.51;96946.41;5148622;27;20669;-72
2020/12/22 09:29:41;;;;;;;0.70;0.50;;;;;;;12.06;90.98;96936.81;5150344;27;20182;-73
2020/12/22 09:32:09;;;;;;;0.50;0.50;;;;;;;11.94;91.87;96938.66;5130469;27;20178;-72
2020/12/22 09:34:36;;;;;;;0.50;0.50;;;;;;;11.88;92.00;96937.78;5131385;27;20187;-74
2020/12/22 09:37:04;;;;;;;0.50;0.50;;;;;;;11.92;92.70;96940.75;5149633;27;20703;-75
2020/12/22 09:39:31;;;;;;;0.83;0.50;;;;;;;11.81;93.24;96921.34;5149723;27;20179;-75
2020/12/22 09:41:57;;;;;;;0.50;0.50;;;;;;;11.80;94.06;96932.88;5149790;27;20274;-72
2020/12/22 09:44:23;;;;;;;0.50;0.50;;;;;;;11.86;93.19;96934.59;5148404;27;20289;-75
2020/12/22 09:46:51;;;;;;;0.87;0.50;;;;;;;11.83;93.84;96928.97;5149873;27;20639;-73
2020/12/22 09:49:18;;;;;;;0.40;0.40;;;;;;;11.94;93.69;96930.78;5148880;27;20186;-74
2020/12/22 09:51:44;;;;;;;0.40;0.40;;;;;;;11.85;94.54;96937.44;5149920;27;20198;-71
2020/12/22 09:54:10;;;;;;;0.83;0.50;;;;;;;11.90;94.07;96943.59;5149038;27;20206;-70
2020/12/22 09:56:36;;;;;;;0.67;0.40;;;;;;;11.93;93.45;96951.00;5149315;27;20179;-73
2020/12/22 09:59:53;;;;;;;0.60;0.60;;;;;;;13.59;84.70;96944.56;5068855;28;20514;-66
2020/12/22 10:02:19;;;;;;;0.60;0.60;;;;;;;13.09;86.02;96935.84;5067561;28;20208;-66
2020/12/22 10:04:44;;;;;;;0.67;0.67;;;;;;;12.66;88.81;96944.28;5068327;28;20173;-65
2020/12/22 10:07:10;;;;;;;0.70;0.70;;;;;;;12.38;90.10;96934.56;5049128;28;20708;-65
2020/12/22 10:09:35;;;;;;;0.80;0.80;;;;;;;12.23;90.68;96950.03;5048511;28;20641;-65
2020/12/22 10:12:01;;;;;;;1.53;0.60;;;;;;;12.28;90.57;96937.81;5047271;28;20181;-65
2020/12/22 10:14:26;;;;;;;0.57;0.57;;;;;;;12.26;90.51;96926.72;5046618;28;20193;-65
2020/12/22 10:16:52;;;;;;;0.70;0.70;;;;;;;12.30;90.52;96938.38;5048592;28;20210;-65
2020/12/22 10:19:17;;;;;;;0.70;0.70;;;;;;;12.34;90.23;96941.31;5048138;28;20256;-65
2020/12/22 10:21:43;;;;;;;0.60;0.60;;;;;;;12.32;89.94;96935.50;5048265;28;20212;-66
2020/12/22 10:24:08;;;;;;;0.60;0.60;;;;;;;12.46;89.22;96939.47;5047774;28;20178;-65
2020/12/22 10:26:34;;;;;;;0.70;0.70;;;;;;;12.41;89.17;96937.53;5047434;28;20264;-65
2020/12/22 10:29:00;;;;;;;1.03;0.70;;;;;;;12.39;88.79;96936.97;5048137;28;20174;-65
2020/12/22 10:31:27;;;;;;;0.70;0.70;;;;;;;12.44;88.40;96938.88;5047733;28;20174;-65
2020/12/22 10:33:53;;;;;;;0.70;0.70;;;;;;;12.44;88.19;96941.50;5047749;28;20212;-64
2020/12/22 10:36:20;;;;;;;0.80;0.80;;;;;;;12.55;87.97;96939.88;5047034;28;20336;-65
2020/12/22 10:38:46;;;;;;;0.77;0.77;;;;;;;12.48;87.99;96943.44;5047278;28;20363;-65
2020/12/22 10:41:11;;;;;;;0.60;0.60;;;;;;;12.52;88.23;96953.50;5047214;28;20682;-65
2020/12/22 10:43:37;;;;;;;0.70;0.70;;;;;;;12.59;87.23;96944.44;5044962;28;20170;-65
2020/12/22 10:46:03;;;;;;;0.70;0.70;;;;;;;12.56;87.51;96944.91;5047268;28;20213;-65
2020/12/22 10:48:30;;;;;;;0.90;0.90;;;;;;;12.67;86.60;96943.25;5047436;28;20170;-65
2020/12/22 10:50:55;;;;;;;0.80;0.80;;;;;;;12.65;86.15;96938.22;5047462;28;20287;-65
2020/12/22 10:53:21;;;;;;;0.70;0.70;;;;;;;12.56;86.58;96946.72;5046622;28;20638;-65
2020/12/22 10:55:46;;;;;;;0.80;0.80;;;;;;;12.56;86.37;96936.22;5046454;28;20232;-65
2020/12/22 10:58:12;;;;;;;1.00;1.00;;;;;;;12.56;86.71;96944.09;5057683;28;20236;-65
2020/12/22 11:00:38;;;;;;;0.80;0.80;;;;;;;12.53;86.62;96940.13;5079739;28;20177;-65
2020/12/22 11:03:09;;;;;;;0.77;0.77;;;;;;;12.52;86.71;96949.03;5087770;28;20525;-65
2020/12/22 11:08:21;;;;;;;0.90;0.90;;;;;;;12.59;86.51;96946.28;5086872;28;20534;-65
2020/12/22 11:10:50;;;;;;;0.67;0.67;;;;;;;12.53;86.75;96949.84;5076321;28;20214;-65
2020/12/22 11:13:15;;;;;;;0.77;0.77;;;;;;;12.55;86.74;96956.44;5072901;28;20169;-65
2020/12/22 11:15:43;;;;;;;0.70;0.70;;;;;;;12.63;86.76;96950.84;5073473;28;20661;-65
2020/12/22 11:18:10;;;;;;;0.70;0.70;;;;;;;12.70;86.21;96951.50;5072971;28;20568;-66
2020/12/22 11:20:36;;;;;;;1.00;1.00;;;;;;;12.72;85.81;96954.66;5073311;28;20211;-65
2020/12/22 11:23:02;;;;;;;1.00;1.00;;;;;;;12.64;86.24;96957.69;5073149;28;20169;-65
2020/12/22 11:25:28;;;;;;;1.40;1.30;;;;;;;12.68;86.06;96953.53;5072932;28;20193;-65
2020/12/22 11:27:53;;;;;;;1.00;1.00;;;;;;;12.72;85.86;96957.28;5071550;28;20177;-65
2020/12/22 11:30:19;;;;;;;1.00;1.00;;;;;;;12.73;85.86;96951.00;5072933;28;20170;-65
2020/12/22 11:32:46;;;;;;;1.17;1.17;;;;;;;12.84;85.52;96955.41;5073775;28;20196;-64
2020/12/22 11:35:11;;;;;;;1.30;1.30;;;;;;;12.87;85.48;96949.66;5072235;28;20189;-65
2020/12/22 11:37:37;;;;;;;1.20;1.20;;;;;;;12.75;86.13;96941.06;5073242;28;20166;-65
2020/12/22 11:40:05;;;;;;;1.10;1.07;;;;;;;12.73;86.48;96943.13;5073181;28;20192;-65
2020/12/22 11:42:30;;;;;;;1.80;0.93;;;;;;;12.74;86.40;96942.09;5067033;28;20173;-66
2020/12/22 11:44:56;;;;;;;0.80;0.80;;;;;;;12.70;86.86;96940.16;5072792;28;20641;-65
2020/12/22 11:47:21;;;;;;;0.80;0.80;;;;;;;12.66;86.99;96933.75;5072482;28;20279;-65
2020/12/22 11:49:47;;;;;;;0.80;0.80;;;;;;;12.62;87.04;96935.28;5072864;28;20177;-65
2020/12/22 11:52:12;;;;;;;1.53;0.70;;;;;;;12.59;87.52;96933.94;5072495;28;20185;-64
2020/12/22 11:54:38;;;;;;;0.80;0.80;;;;;;;12.62;87.54;96930.03;5072978;28;20185;-66
2020/12/22 11:57:06;;;;;;;0.60;0.60;;;;;;;12.56;87.95;96928.31;5071395;28;20227;-65
2020/12/22 11:59:35;;;;;;;0.63;0.63;;;;;;;12.59;87.88;96920.78;5069845;28;20237;-65
2020/12/22 12:02:04;;;;;;;0.70;0.70;;;;;;;12.62;87.87;96928.19;5072730;28;20185;-65
2020/12/22 12:04:30;;;;;;;0.73;0.73;;;;;;;12.69;87.48;96934.13;5085708;28;20165;-64
2020/12/22 12:06:56;;;;;;;0.70;0.70;;;;;;;12.71;87.77;96941.75;5073414;28;20245;-64
2020/12/22 12:09:21;;;;;;;0.70;0.70;;;;;;;12.77;87.65;96935.53;5072107;28;20226;-65
2020/12/22 12:11:51;;;;;;;0.70;0.70;;;;;;;12.77;87.34;96925.81;5072799;28;20238;-67
2020/12/22 12:14:18;;;;;;;0.70;0.70;;;;;;;12.84;87.24;96925.69;5071434;28;20197;-65
2020/12/22 12:16:48;;;;;;;0.70;0.70;;;;;;;12.88;87.23;96939.94;5072486;28;20197;-66
2020/12/22 12:19:14;;;;;;;0.90;0.90;;;;;;;12.88;86.92;96942.56;5071491;28;20189;-65
2020/12/22 12:21:40;;;;;;;0.87;0.87;;;;;;;13.00;86.63;96926.72;5071596;28;20191;-65
2020/12/22 12:24:06;;;;;;;0.80;0.77;;;;;;;13.02;86.36;96941.25;5072599;28;20181;-65
2020/12/22 12:26:32;;;;;;;0.80;0.80;;;;;;;13.09;86.30;96946.38;5070639;28;20201;-65
2020/12/22 12:28:57;;;;;;;1.00;1.00;;;;;;;13.25;85.83;96950.88;5072444;28;20272;-66
2020/12/22 12:31:24;;;;;;;0.90;0.90;;;;;;;13.28;85.54;96947.75;5071419;28;20178;-65
2020/12/22 12:33:50;;;;;;;1.00;1.00;;;;;;;13.28;85.23;96921.44;5071272;28;20251;-66
2020/12/22 12:36:16;;;;;;;1.37;1.00;;;;;;;13.22;86.22;96928.44;5069875;28;20205;-66
2020/12/22 12:38:42;;;;;;;0.97;0.97;;;;;;;13.36;85.59;96936.84;5062538;28;20315;-66
2020/12/22 12:41:11;;;;;;;1.63;1.00;;;;;;;13.26;86.38;96929.56;5072263;28;20215;-64